ADDS METAR Data INFO
IDs: Format: Raw Decoded Include TAF

Data at: 0256 UTC 21 Oct 2017

KADH 210235Z AUTO 15011G15KT 10SM SCT037 21/16 A2991 RMK AO2
KADH 210215Z AUTO 15010KT 10SM SCT037 BKN050 22/16 A2991 RMK AO2
KADH 210155Z AUTO 15009KT 10SM BKN041 BKN050 22/16 A2992 RMK AO2
KADH 210135Z AUTO 15008KT 10SM SCT038 BKN044 OVC050 22/17 A2992 RMK AO2
KADH 210115Z AUTO 15007G15KT 10SM BKN044 BKN050 22/17 A2992 RMK AO2
KADH 210050Z AUTO 15013G17KT 10SM SCT042 22/17 A2992 RMK AO2
KADH 210035Z AUTO 15010KT 10SM SCT042 SCT050 22/17 A2991 RMK AO2
KADH 210015Z AUTO 15010G15KT 10SM SCT039 BKN047 23/16 A2990 RMK AO2
KADH 202355Z AUTO 15010KT 10SM SCT039 23/16 A2990 RMK AO2
KADH 202335Z AUTO 16010G14KT 10SM CLR 23/16 A2990 RMK AO2
KADH 202315Z AUTO 16010KT 10SM CLR 23/16 A2990 RMK AO2
KADH 202255Z AUTO 16010G14KT 10SM CLR 24/16 A2990 RMK AO2
KADH 202235Z AUTO 16010G14KT 10SM CLR 25/17 A2991 RMK AO2
KADH 202215Z AUTO 17015G19KT 10SM CLR 25/16 A2991 RMK AO2
KADH 202155Z AUTO 15012G18KT 10SM SCT040 25/17 A2991 RMK AO2
KADH 202135Z AUTO 16012KT 10SM SCT037 SCT044 25/17 A2991 RMK AO2
KADH 202115Z AUTO 15016G21KT 10SM SCT037 25/17 A2992 RMK AO2
KADH 202055Z AUTO 16015G20KT 10SM SCT045 SCT070 26/17 A2991 RMK AO2 LTG DSNT SE
KADH 202035Z AUTO 15014G18KT 10SM SCT044 BKN050 BKN070 26/17 A2993 RMK AO2
KADH 202015Z AUTO 16012G17KT 10SM SCT042 BKN050 25/16 A2994 RMK AO2
KADH 201955Z AUTO 15016G19KT 10SM SCT042 SCT048 BKN070 27/16 A2995 RMK AO2
KADH 201935Z AUTO 15013G21KT 10SM SCT070 26/15 A2996 RMK AO2
KADH 201915Z AUTO 16012G18KT 10SM CLR 26/15 A2997 RMK AO2
KADH 201855Z AUTO 18012KT 10SM CLR 26/15 A2999 RMK AO2
KADH 201835Z AUTO 17012KT 10SM CLR 25/15 A3000 RMK AO2
KADH 201815Z AUTO 17014G18KT 10SM CLR 25/15 A3002 RMK AO2
KADH 201755Z AUTO 16013G19KT 10SM SCT060 25/15 A3004 RMK AO2
KADH 201735Z AUTO 16011G15KT 10SM BKN060 24/16 A3005 RMK AO2
KADH 201715Z AUTO 15010G15KT 10SM SCT060 SCT070 23/16 A3007 RMK AO2
KADH 201655Z AUTO 16007KT 10SM BKN050 BKN070 22/15 A3007 RMK AO2
KADH 201635Z AUTO 16009G14KT 10SM BKN050 BKN070 20/15 A3008 RMK AO2 LTG DSNT S
KADH 201615Z AUTO 16009KT 10SM SCT050 21/14 A3008 RMK AO2
KADH 201555Z AUTO 16012KT 10SM CLR 20/14 A3009 RMK AO2
KADH 201535Z AUTO 16010G16KT 10SM CLR 18/13 A3010 RMK AO2
KADH 201515Z AUTO 16011G17KT 10SM SCT020 SCT070 17/13 A3011 RMK AO2
KADH 201455Z AUTO 15010G14KT 10SM OVC020 15/13 A3011 RMK AO2
KADH 201435Z AUTO 16009G17KT 10SM BKN016 OVC060 15/13 A3012 RMK AO2
KADH 201415Z AUTO 15008KT 10SM BKN060 16/13 A3010 RMK AO2
KADH 201355Z AUTO 15007KT 10SM CLR 15/13 A3010 RMK AO2
KADH 201335Z AUTO 14006KT 10SM CLR 13/12 A3010 RMK AO2
KADH 201315Z AUTO 14008KT 10SM CLR 13/12 A3010 RMK AO2
KADH 201255Z AUTO 14005KT 10SM CLR 13/12 A3009 RMK AO2
KADH 201235Z AUTO 16005KT 10SM CLR 13/12 A3010 RMK AO2
KADH 201215Z AUTO 15005KT 10SM CLR 13/12 A3009 RMK AO2
KADH 201155Z AUTO 15005KT 10SM CLR 13/12 A3009 RMK AO2
KADH 201135Z AUTO 14004KT 10SM CLR 13/12 A3010 RMK AO2
KADH 201115Z AUTO 15004KT 10SM CLR 13/12 A3010 RMK AO2
KADH 201055Z AUTO 15006KT 10SM CLR 14/12 A3010 RMK AO2
KADH 201035Z AUTO 15007KT 10SM CLR 14/12 A3010 RMK AO2
KADH 201015Z AUTO 15006KT 10SM CLR 13/12 A3010 RMK AO2
KADH 200955Z AUTO 15006KT 10SM CLR 14/11 A3010 RMK AO2
KADH 200935Z AUTO 15007KT 10SM CLR 14/11 A3010 RMK AO2
KADH 200915Z AUTO 15007KT 10SM CLR 14/11 A3010 RMK AO2
KADH 200855Z AUTO 15009KT 10SM CLR 15/11 A3011 RMK AO2
KADH 200830Z AUTO 15008KT 10SM CLR 15/11 A3010 RMK AO2
KADH 200815Z AUTO 15008KT 10SM CLR 15/11 A3010 RMK AO2
KADH 200755Z AUTO 15008KT 10SM CLR 15/11 A3011 RMK AO2
KADH 200735Z AUTO 15007KT 10SM CLR 15/11 A3011 RMK AO2
KADH 200715Z AUTO 15007KT 10SM CLR 15/11 A3011 RMK AO2
KADH 200655Z AUTO 15007KT 10SM CLR 15/11 A3011 RMK AO2
KADH 200635Z AUTO 14006KT 10SM CLR 15/11 A3011 RMK AO2
KADH 200615Z AUTO 14005KT 10SM CLR 15/11 A3011 RMK AO2
KADH 200555Z AUTO 15005KT 10SM CLR 15/11 A3010 RMK AO2
KADH 200535Z AUTO 14005KT 10SM CLR 15/10 A3011 RMK AO2
KADH 200515Z AUTO 14004KT 10SM CLR 15/10 A3011 RMK AO2
KADH 200455Z AUTO 14005KT 10SM CLR 15/10 A3012 RMK AO2
KADH 200435Z AUTO 14004KT 10SM CLR 15/10 A3012 RMK AO2
KADH 200415Z AUTO 14004KT 10SM CLR 16/11 A3012 RMK AO2
KADH 200355Z AUTO 16004KT 10SM CLR 16/11 A3012 RMK AO2
KADH 200335Z AUTO 15003KT 10SM CLR 17/11 A3011 RMK AO2
KADH 200315Z AUTO 16004KT 10SM CLR 17/11 A3011 RMK AO2
KADH 200255Z AUTO 15005KT 10SM CLR 16/11 A3011 RMK AO2
KADH 200235Z AUTO 15004KT 10SM CLR 17/11 A3010 RMK AO2
KADH 200215Z AUTO 16003KT 10SM CLR 17/11 A3010 RMK AO2
KADH 200155Z AUTO 16003KT 10SM CLR 18/11 A3010 RMK AO2
KADH 200135Z AUTO 15003KT 10SM CLR 18/11 A3010 RMK AO2
KADH 200115Z AUTO 14004KT 10SM CLR 18/11 A3010 RMK AO2
KADH 200055Z AUTO 13005KT 10SM CLR 19/11 A3009 RMK AO2
KADH 200035Z AUTO 14005KT 10SM CLR 20/11 A3009 RMK AO2
KADH 200015Z AUTO 14006KT 10SM CLR 20/11 A3008 RMK AO2
KADH 192355Z AUTO 13005KT 10SM CLR 21/11 A3008 RMK AO2
KADH 192335Z AUTO 13006KT 10SM CLR 22/11 A3008 RMK AO2
KADH 192315Z AUTO 13006KT 10SM CLR 22/11 A3008 RMK AO2
KADH 192255Z AUTO 13008KT 10SM CLR 23/12 A3008 RMK AO2
KADH 192235Z AUTO 14006KT 10SM CLR 25/11 A3008 RMK AO2
KADH 192215Z AUTO 15009KT 10SM CLR 25/10 A3009 RMK AO2
KADH 192155Z AUTO 15008KT 10SM CLR 26/10 A3009 RMK AO2
KADH 192135Z AUTO 14008KT 10SM CLR 26/11 A3009 RMK AO2
KADH 192115Z AUTO 16008KT 10SM CLR 26/13 A3009 RMK AO2
KADH 192055Z AUTO 16005KT 10SM CLR 26/12 A3009 RMK AO2
KADH 192035Z AUTO 17005KT 10SM CLR 25/12 A3010 RMK AO2
KADH 192015Z AUTO 15007KT 10SM CLR 24/13 A3011 RMK AO2
KADH 191955Z AUTO 17005KT 10SM CLR 24/13 A3011 RMK AO2
KADH 191935Z AUTO 19006KT 10SM CLR 24/12 A3012 RMK AO2
KADH 191915Z AUTO 16005KT 10SM CLR 24/13 A3013 RMK AO2
KADH 191855Z AUTO 15005KT 10SM CLR 24/13 A3014 RMK AO2
KADH 191835Z AUTO 18005KT 10SM CLR 23/13 A3015 RMK AO2
KADH 191815Z AUTO 18006KT 10SM CLR 23/13 A3016 RMK AO2
KADH 191755Z AUTO 18005KT 10SM CLR 23/12 A3017 RMK AO2
KADH 191735Z AUTO 17009KT 120V200 10SM CLR 23/13 A3017 RMK AO2
KADH 191715Z AUTO 17004KT 10SM CLR 22/15 A3018 RMK AO2
KADH 191655Z AUTO 15006KT 10SM CLR 20/14 A3019 RMK AO2
KADH 191635Z AUTO 16006KT 10SM CLR 20/13 A3019 RMK AO2
KADH 191615Z AUTO 15003KT 10SM CLR 18/12 A3019 RMK AO2
KADH 191555Z AUTO 15004KT 10SM CLR 17/11 A3019 RMK AO2
KADH 191535Z AUTO 15004KT 10SM CLR 16/11 A3019 RMK AO2
KADH 191515Z AUTO 14004KT 10SM CLR 15/10 A3019 RMK AO2